Terminal Aerodrome Forecast
Issued by NWS Cleveland, OH

Home | Current Version | Previous Version | Graphics & Text | Print | Product List | Glossary On
Versions: 1 2 3 4 5 6 7 8 9 10 11 12 13 14 15 16 17 18 19
000
FTUS41 KCLE 222300
TAFERI
TAF
KERI 222333Z 2300/2324 26010G18KT P6SM BKN035
     FM230200 31012KT P6SM -SHRA OVC025
     FM230700 32015G25KT P6SM OVC025
     FM231300 32015G25KT P6SM BKN035
     FM231800 34012G20KT P6SM SCT035=

USA.gov is the U.S. government's official web portal to all federal, state and local government web resources and services.